sensor_id;sensor_type;location;lat;lon;timestamp;temperature;humidity
20246;DHT22;10281;54.406;18.556;2023-01-10T00:00:09;6.50;99.90
20246;DHT22;10281;54.406;18.556;2023-01-10T00:02:35;6.50;99.90
20246;DHT22;10281;54.406;18.556;2023-01-10T00:05:02;6.60;99.90
20246;DHT22;10281;54.406;18.556;2023-01-10T00:07:29;6.60;99.90
20246;DHT22;10281;54.406;18.556;2023-01-10T00:09:55;6.60;99.90
20246;DHT22;10281;54.406;18.556;2023-01-10T00:12:22;6.60;99.90
20246;DHT22;10281;54.406;18.556;2023-01-10T00:14:54;6.60;99.90
20246;DHT22;10281;54.406;18.556;2023-01-10T00:17:21;6.70;99.90
20246;DHT22;10281;54.406;18.556;2023-01-10T00:19:48;6.70;99.90
20246;DHT22;10281;54.406;18.556;2023-01-10T00:22:14;6.70;99.90
20246;DHT22;10281;54.406;18.556;2023-01-10T00:24:43;6.70;99.90
20246;DHT22;10281;54.406;18.556;2023-01-10T00:27:09;6.70;99.90
20246;DHT22;10281;54.406;18.556;2023-01-10T00:29:37;6.70;99.90
20246;DHT22;10281;54.406;18.556;2023-01-10T00:32:04;6.70;99.90
20246;DHT22;10281;54.406;18.556;2023-01-10T00:34:31;6.70;99.90
20246;DHT22;10281;54.406;18.556;2023-01-10T00:36:58;6.70;99.90
20246;DHT22;10281;54.406;18.556;2023-01-10T00:39:24;6.80;99.90
20246;DHT22;10281;54.406;18.556;2023-01-10T00:41:52;6.80;99.90
20246;DHT22;10281;54.406;18.556;2023-01-10T00:44:25;6.80;99.90
20246;DHT22;10281;54.406;18.556;2023-01-10T00:46:52;6.80;99.90
20246;DHT22;10281;54.406;18.556;2023-01-10T00:49:19;6.80;99.90
20246;DHT22;10281;54.406;18.556;2023-01-10T00:51:46;6.80;99.90
20246;DHT22;10281;54.406;18.556;2023-01-10T00:54:13;6.80;99.90
20246;DHT22;10281;54.406;18.556;2023-01-10T00:56:40;6.80;99.90
20246;DHT22;10281;54.406;18.556;2023-01-10T00:59:07;6.80;99.90
20246;DHT22;10281;54.406;18.556;2023-01-10T01:01:34;6.80;99.90
20246;DHT22;10281;54.406;18.556;2023-01-10T01:04:01;6.80;99.90
20246;DHT22;10281;54.406;18.556;2023-01-10T01:06:28;6.80;99.90
20246;DHT22;10281;54.406;18.556;2023-01-10T01:08:54;6.70;99.90
20246;DHT22;10281;54.406;18.556;2023-01-10T01:11:21;6.70;99.90
20246;DHT22;10281;54.406;18.556;2023-01-10T01:13:47;6.70;99.90
20246;DHT22;10281;54.406;18.556;2023-01-10T01:16:14;6.70;99.90
20246;DHT22;10281;54.406;18.556;2023-01-10T01:18:41;6.70;99.90
20246;DHT22;10281;54.406;18.556;2023-01-10T01:21:07;6.70;99.90
20246;DHT22;10281;54.406;18.556;2023-01-10T01:23:34;6.70;99.90
20246;DHT22;10281;54.406;18.556;2023-01-10T01:26:01;6.70;99.90
20246;DHT22;10281;54.406;18.556;2023-01-10T01:28:28;6.70;99.90
20246;DHT22;10281;54.406;18.556;2023-01-10T01:30:55;6.70;99.90
20246;DHT22;10281;54.406;18.556;2023-01-10T01:33:21;6.70;99.90
20246;DHT22;10281;54.406;18.556;2023-01-10T01:35:48;6.50;99.90
20246;DHT22;10281;54.406;18.556;2023-01-10T01:38:16;6.60;99.90
20246;DHT22;10281;54.406;18.556;2023-01-10T01:40:43;6.60;99.90
20246;DHT22;10281;54.406;18.556;2023-01-10T01:43:22;6.60;99.90
20246;DHT22;10281;54.406;18.556;2023-01-10T01:45:49;6.60;99.90
20246;DHT22;10281;54.406;18.556;2023-01-10T01:48:36;6.60;99.90
20246;DHT22;10281;54.406;18.556;2023-01-10T01:51:07;6.60;99.90
20246;DHT22;10281;54.406;18.556;2023-01-10T01:53:43;6.60;99.90
20246;DHT22;10281;54.406;18.556;2023-01-10T01:56:23;6.50;99.90
20246;DHT22;10281;54.406;18.556;2023-01-10T01:58:56;6.50;99.90
20246;DHT22;10281;54.406;18.556;2023-01-10T02:01:23;6.50;99.90
20246;DHT22;10281;54.406;18.556;2023-01-10T02:03:55;6.50;99.90
20246;DHT22;10281;54.406;18.556;2023-01-10T02:06:22;6.50;99.90
20246;DHT22;10281;54.406;18.556;2023-01-10T02:08:54;6.40;99.90
20246;DHT22;10281;54.406;18.556;2023-01-10T02:11:20;6.40;99.90
20246;DHT22;10281;54.406;18.556;2023-01-10T02:13:47;6.40;99.90
20246;DHT22;10281;54.406;18.556;2023-01-10T02:16:15;6.40;99.90
20246;DHT22;10281;54.406;18.556;2023-01-10T02:18:42;6.40;99.90
20246;DHT22;10281;54.406;18.556;2023-01-10T02:21:28;6.30;99.90
20246;DHT22;10281;54.406;18.556;2023-01-10T02:24:37;6.30;99.90
20246;DHT22;10281;54.406;18.556;2023-01-10T02:27:09;6.20;99.90
20246;DHT22;10281;54.406;18.556;2023-01-10T02:32:23;6.00;99.90
20246;DHT22;10281;54.406;18.556;2023-01-10T02:35:07;6.00;99.90
20246;DHT22;10281;54.406;18.556;2023-01-10T02:37:58;5.90;99.90
20246;DHT22;10281;54.406;18.556;2023-01-10T02:40:33;5.90;99.90
20246;DHT22;10281;54.406;18.556;2023-01-10T02:43:03;5.90;99.90
20246;DHT22;10281;54.406;18.556;2023-01-10T02:45:40;5.90;99.90
20246;DHT22;10281;54.406;18.556;2023-01-10T02:48:07;5.90;99.90
20246;DHT22;10281;54.406;18.556;2023-01-10T02:50:47;5.90;99.90
20246;DHT22;10281;54.406;18.556;2023-01-10T02:53:20;5.80;99.90
20246;DHT22;10281;54.406;18.556;2023-01-10T02:59:17;5.80;99.90
20246;DHT22;10281;54.406;18.556;2023-01-10T03:01:41;5.80;99.90
20246;DHT22;10281;54.406;18.556;2023-01-10T03:04:18;5.80;99.90
20246;DHT22;10281;54.406;18.556;2023-01-10T03:07:04;5.80;99.90
20246;DHT22;10281;54.406;18.556;2023-01-10T03:09:44;5.70;99.90
20246;DHT22;10281;54.406;18.556;2023-01-10T03:12:13;5.60;99.90
20246;DHT22;10281;54.406;18.556;2023-01-10T03:14:41;5.50;99.90
20246;DHT22;10281;54.406;18.556;2023-01-10T03:17:11;5.50;99.90
20246;DHT22;10281;54.406;18.556;2023-01-10T03:19:42;5.40;99.90
20246;DHT22;10281;54.406;18.556;2023-01-10T03:22:10;5.30;99.90
20246;DHT22;10281;54.406;18.556;2023-01-10T03:24:41;5.20;99.90
20246;DHT22;10281;54.406;18.556;2023-01-10T03:27:23;5.10;99.90
20246;DHT22;10281;54.406;18.556;2023-01-10T03:29:54;5.10;99.90
20246;DHT22;10281;54.406;18.556;2023-01-10T03:32:24;5.10;99.90
20246;DHT22;10281;54.406;18.556;2023-01-10T03:34:52;5.10;99.90
20246;DHT22;10281;54.406;18.556;2023-01-10T03:37:29;5.10;99.90
20246;DHT22;10281;54.406;18.556;2023-01-10T03:40:15;5.10;99.90
20246;DHT22;10281;54.406;18.556;2023-01-10T03:42:59;5.20;99.90
20246;DHT22;10281;54.406;18.556;2023-01-10T03:45:38;5.20;99.90
20246;DHT22;10281;54.406;18.556;2023-01-10T03:48:04;5.20;99.90
20246;DHT22;10281;54.406;18.556;2023-01-10T03:50:33;5.20;99.90
20246;DHT22;10281;54.406;18.556;2023-01-10T03:53:01;5.20;99.90
20246;DHT22;10281;54.406;18.556;2023-01-10T03:55:28;5.20;99.90
20246;DHT22;10281;54.406;18.556;2023-01-10T03:57:55;5.20;99.90
20246;DHT22;10281;54.406;18.556;2023-01-10T04:00:23;5.20;99.90
20246;DHT22;10281;54.406;18.556;2023-01-10T04:02:51;5.20;99.90
20246;DHT22;10281;54.406;18.556;2023-01-10T04:05:17;5.20;99.90
20246;DHT22;10281;54.406;18.556;2023-01-10T04:07:44;5.20;99.90
20246;DHT22;10281;54.406;18.556;2023-01-10T04:10:13;5.20;99.90
20246;DHT22;10281;54.406;18.556;2023-01-10T04:12:39;5.20;99.90
20246;DHT22;10281;54.406;18.556;2023-01-10T04:15:06;5.20;99.90
20246;DHT22;10281;54.406;18.556;2023-01-10T04:17:33;5.20;99.90
20246;DHT22;10281;54.406;18.556;2023-01-10T04:19:59;5.20;99.90
20246;DHT22;10281;54.406;18.556;2023-01-10T04:22:26;5.10;99.90
20246;DHT22;10281;54.406;18.556;2023-01-10T04:24:53;5.10;99.90
20246;DHT22;10281;54.406;18.556;2023-01-10T04:27:19;5.20;99.90
20246;DHT22;10281;54.406;18.556;2023-01-10T04:29:46;5.10;99.90
20246;DHT22;10281;54.406;18.556;2023-01-10T04:32:13;5.10;99.90
20246;DHT22;10281;54.406;18.556;2023-01-10T04:34:40;5.10;99.90
20246;DHT22;10281;54.406;18.556;2023-01-10T04:37:06;5.00;99.90
20246;DHT22;10281;54.406;18.556;2023-01-10T04:39:33;5.00;99.90
20246;DHT22;10281;54.406;18.556;2023-01-10T04:41:59;5.00;99.90
20246;DHT22;10281;54.406;18.556;2023-01-10T04:44:26;4.90;99.90
20246;DHT22;10281;54.406;18.556;2023-01-10T04:46:53;4.90;99.90
20246;DHT22;10281;54.406;18.556;2023-01-10T04:49:19;5.00;99.90
20246;DHT22;10281;54.406;18.556;2023-01-10T04:51:46;5.00;99.90
20246;DHT22;10281;54.406;18.556;2023-01-10T04:54:13;5.00;99.90
20246;DHT22;10281;54.406;18.556;2023-01-10T04:56:40;5.10;99.90
20246;DHT22;10281;54.406;18.556;2023-01-10T04:59:08;5.10;99.90
20246;DHT22;10281;54.406;18.556;2023-01-10T05:01:35;5.10;99.90
20246;DHT22;10281;54.406;18.556;2023-01-10T05:04:06;5.10;99.90
20246;DHT22;10281;54.406;18.556;2023-01-10T05:06:33;5.10;99.90
20246;DHT22;10281;54.406;18.556;2023-01-10T05:09:00;5.10;99.90
20246;DHT22;10281;54.406;18.556;2023-01-10T05:11:26;5.10;99.90
20246;DHT22;10281;54.406;18.556;2023-01-10T05:13:53;5.10;99.90
20246;DHT22;10281;54.406;18.556;2023-01-10T05:16:19;5.10;99.90
20246;DHT22;10281;54.406;18.556;2023-01-10T05:18:46;5.10;99.90
20246;DHT22;10281;54.406;18.556;2023-01-10T05:21:13;5.10;99.90
20246;DHT22;10281;54.406;18.556;2023-01-10T05:23:40;5.20;99.90
20246;DHT22;10281;54.406;18.556;2023-01-10T05:26:09;5.20;99.90
20246;DHT22;10281;54.406;18.556;2023-01-10T05:28:37;5.20;99.90
20246;DHT22;10281;54.406;18.556;2023-01-10T05:31:07;5.30;99.90
20246;DHT22;10281;54.406;18.556;2023-01-10T05:33:35;5.30;99.90
20246;DHT22;10281;54.406;18.556;2023-01-10T05:36:02;5.30;99.90
20246;DHT22;10281;54.406;18.556;2023-01-10T05:38:30;5.30;99.90
20246;DHT22;10281;54.406;18.556;2023-01-10T05:40:57;5.30;99.90
20246;DHT22;10281;54.406;18.556;2023-01-10T05:43:25;5.30;99.90
20246;DHT22;10281;54.406;18.556;2023-01-10T05:45:52;5.30;99.90
20246;DHT22;10281;54.406;18.556;2023-01-10T05:48:19;5.30;99.90
20246;DHT22;10281;54.406;18.556;2023-01-10T05:50:47;5.30;99.90
20246;DHT22;10281;54.406;18.556;2023-01-10T05:53:14;5.30;99.90
20246;DHT22;10281;54.406;18.556;2023-01-10T05:55:41;5.40;99.90
20246;DHT22;10281;54.406;18.556;2023-01-10T05:58:07;5.40;99.90
20246;DHT22;10281;54.406;18.556;2023-01-10T06:00:36;5.30;99.90
20246;DHT22;10281;54.406;18.556;2023-01-10T06:03:05;5.30;99.90
20246;DHT22;10281;54.406;18.556;2023-01-10T06:05:31;5.30;99.90
20246;DHT22;10281;54.406;18.556;2023-01-10T06:08:00;5.30;99.90
20246;DHT22;10281;54.406;18.556;2023-01-10T06:10:26;5.30;99.90
20246;DHT22;10281;54.406;18.556;2023-01-10T06:12:53;5.20;99.90
20246;DHT22;10281;54.406;18.556;2023-01-10T06:15:20;5.20;99.90
20246;DHT22;10281;54.406;18.556;2023-01-10T06:17:47;5.20;99.90
20246;DHT22;10281;54.406;18.556;2023-01-10T06:20:13;5.20;99.90
20246;DHT22;10281;54.406;18.556;2023-01-10T06:22:41;5.20;99.90
20246;DHT22;10281;54.406;18.556;2023-01-10T06:25:10;5.20;99.90
20246;DHT22;10281;54.406;18.556;2023-01-10T06:27:40;5.20;99.90
20246;DHT22;10281;54.406;18.556;2023-01-10T06:30:08;5.20;99.90
20246;DHT22;10281;54.406;18.556;2023-01-10T06:32:35;5.20;99.90
20246;DHT22;10281;54.406;18.556;2023-01-10T06:35:03;5.10;99.90
20246;DHT22;10281;54.406;18.556;2023-01-10T06:37:30;5.10;99.90
20246;DHT22;10281;54.406;18.556;2023-01-10T06:39:57;5.10;99.90
20246;DHT22;10281;54.406;18.556;2023-01-10T06:42:23;5.10;99.90
20246;DHT22;10281;54.406;18.556;2023-01-10T06:44:50;5.10;99.90
20246;DHT22;10281;54.406;18.556;2023-01-10T06:47:17;5.10;99.90
20246;DHT22;10281;54.406;18.556;2023-01-10T06:49:43;5.10;99.90
20246;DHT22;10281;54.406;18.556;2023-01-10T06:52:10;5.10;99.90
20246;DHT22;10281;54.406;18.556;2023-01-10T06:54:37;5.10;99.90
20246;DHT22;10281;54.406;18.556;2023-01-10T06:57:04;5.10;99.90
20246;DHT22;10281;54.406;18.556;2023-01-10T06:59:31;5.10;99.90
20246;DHT22;10281;54.406;18.556;2023-01-10T07:01:58;5.00;99.90
20246;DHT22;10281;54.406;18.556;2023-01-10T07:04:24;5.10;99.90
20246;DHT22;10281;54.406;18.556;2023-01-10T07:06:52;5.10;99.90
20246;DHT22;10281;54.406;18.556;2023-01-10T07:09:19;5.10;99.90
20246;DHT22;10281;54.406;18.556;2023-01-10T07:11:45;5.10;99.90
20246;DHT22;10281;54.406;18.556;2023-01-10T07:14:12;5.00;99.90
20246;DHT22;10281;54.406;18.556;2023-01-10T07:16:39;5.00;99.90
20246;DHT22;10281;54.406;18.556;2023-01-10T07:19:05;5.00;99.90
20246;DHT22;10281;54.406;18.556;2023-01-10T07:21:33;4.90;99.90
20246;DHT22;10281;54.406;18.556;2023-01-10T07:23:59;4.90;99.90
20246;DHT22;10281;54.406;18.556;2023-01-10T07:26:26;4.90;99.90
20246;DHT22;10281;54.406;18.556;2023-01-10T07:28:52;4.90;99.90
20246;DHT22;10281;54.406;18.556;2023-01-10T07:31:20;4.90;99.90
20246;DHT22;10281;54.406;18.556;2023-01-10T07:33:50;4.80;99.90
20246;DHT22;10281;54.406;18.556;2023-01-10T07:36:17;4.80;99.90
20246;DHT22;10281;54.406;18.556;2023-01-10T07:38:44;4.80;99.90
20246;DHT22;10281;54.406;18.556;2023-01-10T07:41:10;4.80;99.90
20246;DHT22;10281;54.406;18.556;2023-01-10T07:43:37;4.80;99.90
20246;DHT22;10281;54.406;18.556;2023-01-10T07:46:05;4.70;99.90
20246;DHT22;10281;54.406;18.556;2023-01-10T07:48:35;4.70;99.90
20246;DHT22;10281;54.406;18.556;2023-01-10T07:51:03;4.80;99.90
20246;DHT22;10281;54.406;18.556;2023-01-10T07:53:30;4.80;99.90
20246;DHT22;10281;54.406;18.556;2023-01-10T07:55:59;4.80;99.90
20246;DHT22;10281;54.406;18.556;2023-01-10T07:58:27;4.80;99.90
20246;DHT22;10281;54.406;18.556;2023-01-10T08:00:57;4.90;99.90
20246;DHT22;10281;54.406;18.556;2023-01-10T08:03:24;4.90;99.90
20246;DHT22;10281;54.406;18.556;2023-01-10T08:06:03;4.90;99.90
20246;DHT22;10281;54.406;18.556;2023-01-10T08:08:32;4.90;99.90
20246;DHT22;10281;54.406;18.556;2023-01-10T08:10:59;4.90;99.90
20246;DHT22;10281;54.406;18.556;2023-01-10T08:13:28;4.90;99.90
20246;DHT22;10281;54.406;18.556;2023-01-10T08:15:55;4.90;99.90
20246;DHT22;10281;54.406;18.556;2023-01-10T08:18:22;5.00;99.90
20246;DHT22;10281;54.406;18.556;2023-01-10T08:20:50;5.00;99.90
20246;DHT22;10281;54.406;18.556;2023-01-10T08:23:18;5.00;99.90
20246;DHT22;10281;54.406;18.556;2023-01-10T08:25:45;5.00;99.90
20246;DHT22;10281;54.406;18.556;2023-01-10T08:28:12;5.00;99.90
20246;DHT22;10281;54.406;18.556;2023-01-10T08:30:39;5.00;99.90
20246;DHT22;10281;54.406;18.556;2023-01-10T08:33:06;5.10;99.90
20246;DHT22;10281;54.406;18.556;2023-01-10T08:35:39;5.10;99.90
20246;DHT22;10281;54.406;18.556;2023-01-10T08:38:06;5.10;99.90
20246;DHT22;10281;54.406;18.556;2023-01-10T08:40:33;5.20;99.90
20246;DHT22;10281;54.406;18.556;2023-01-10T08:43:03;5.20;99.90
20246;DHT22;10281;54.406;18.556;2023-01-10T08:45:30;5.20;99.90
20246;DHT22;10281;54.406;18.556;2023-01-10T08:47:56;5.20;99.90
20246;DHT22;10281;54.406;18.556;2023-01-10T08:50:24;5.10;99.90
20246;DHT22;10281;54.406;18.556;2023-01-10T08:52:50;5.20;99.90
20246;DHT22;10281;54.406;18.556;2023-01-10T08:55:18;5.20;99.90
20246;DHT22;10281;54.406;18.556;2023-01-10T08:57:44;5.20;99.90
20246;DHT22;10281;54.406;18.556;2023-01-10T09:00:11;5.20;99.90
20246;DHT22;10281;54.406;18.556;2023-01-10T09:02:39;5.20;99.90
20246;DHT22;10281;54.406;18.556;2023-01-10T09:05:06;5.20;99.90
20246;DHT22;10281;54.406;18.556;2023-01-10T09:07:32;5.20;99.90
20246;DHT22;10281;54.406;18.556;2023-01-10T09:09:59;5.20;99.90
20246;DHT22;10281;54.406;18.556;2023-01-10T09:12:26;5.20;99.90
20246;DHT22;10281;54.406;18.556;2023-01-10T09:14:58;5.20;99.90
20246;DHT22;10281;54.406;18.556;2023-01-10T09:17:25;5.30;99.90
20246;DHT22;10281;54.406;18.556;2023-01-10T09:19:51;5.30;99.90
20246;DHT22;10281;54.406;18.556;2023-01-10T09:22:18;5.30;99.90
20246;DHT22;10281;54.406;18.556;2023-01-10T09:24:45;5.30;99.90
20246;DHT22;10281;54.406;18.556;2023-01-10T09:27:11;5.40;99.90
20246;DHT22;10281;54.406;18.556;2023-01-10T09:29:38;5.40;99.90
20246;DHT22;10281;54.406;18.556;2023-01-10T09:32:04;5.50;99.90
20246;DHT22;10281;54.406;18.556;2023-01-10T09:34:32;5.40;99.90
20246;DHT22;10281;54.406;18.556;2023-01-10T09:36:58;5.50;99.90
20246;DHT22;10281;54.406;18.556;2023-01-10T09:39:25;5.50;99.90
20246;DHT22;10281;54.406;18.556;2023-01-10T09:42:04;5.50;99.90
20246;DHT22;10281;54.406;18.556;2023-01-10T09:44:47;5.50;99.90
20246;DHT22;10281;54.406;18.556;2023-01-10T09:50:16;5.60;99.90
20246;DHT22;10281;54.406;18.556;2023-01-10T09:52:47;5.70;99.90
20246;DHT22;10281;54.406;18.556;2023-01-10T09:55:32;5.70;99.90
20246;DHT22;10281;54.406;18.556;2023-01-10T09:58:03;5.70;99.90
20246;DHT22;10281;54.406;18.556;2023-01-10T10:00:43;5.80;99.90
20246;DHT22;10281;54.406;18.556;2023-01-10T10:03:21;5.80;99.90
20246;DHT22;10281;54.406;18.556;2023-01-10T10:05:50;5.90;99.90
20246;DHT22;10281;54.406;18.556;2023-01-10T10:08:18;5.90;99.90
20246;DHT22;10281;54.406;18.556;2023-01-10T10:11:39;5.90;99.90
20246;DHT22;10281;54.406;18.556;2023-01-10T10:14:00;6.00;99.90
20246;DHT22;10281;54.406;18.556;2023-01-10T10:19:42;6.00;99.90
20246;DHT22;10281;54.406;18.556;2023-01-10T10:22:09;6.00;99.90
20246;DHT22;10281;54.406;18.556;2023-01-10T10:30:20;6.00;99.90
20246;DHT22;10281;54.406;18.556;2023-01-10T10:32:52;6.00;99.90
20246;DHT22;10281;54.406;18.556;2023-01-10T10:35:31;6.00;99.90
20246;DHT22;10281;54.406;18.556;2023-01-10T10:38:03;6.00;99.90
20246;DHT22;10281;54.406;18.556;2023-01-10T10:40:32;6.00;99.90
20246;DHT22;10281;54.406;18.556;2023-01-10T10:43:10;6.10;99.90
20246;DHT22;10281;54.406;18.556;2023-01-10T10:45:37;6.20;99.90
20246;DHT22;10281;54.406;18.556;2023-01-10T10:48:32;6.20;99.90
20246;DHT22;10281;54.406;18.556;2023-01-10T10:51:03;6.20;99.90
20246;DHT22;10281;54.406;18.556;2023-01-10T10:53:31;6.30;99.90
20246;DHT22;10281;54.406;18.556;2023-01-10T10:56:00;6.30;99.90
20246;DHT22;10281;54.406;18.556;2023-01-10T10:58:28;6.40;99.90
20246;DHT22;10281;54.406;18.556;2023-01-10T11:00:58;6.40;99.90
20246;DHT22;10281;54.406;18.556;2023-01-10T11:03:30;6.50;99.90
20246;DHT22;10281;54.406;18.556;2023-01-10T11:05:57;6.50;99.90
20246;DHT22;10281;54.406;18.556;2023-01-10T11:08:27;6.60;99.90
20246;DHT22;10281;54.406;18.556;2023-01-10T11:10:58;6.60;99.90
20246;DHT22;10281;54.406;18.556;2023-01-10T11:13:45;6.60;99.90
20246;DHT22;10281;54.406;18.556;2023-01-10T11:18:47;6.70;99.90
20246;DHT22;10281;54.406;18.556;2023-01-10T11:21:16;6.80;99.90
20246;DHT22;10281;54.406;18.556;2023-01-10T11:23:50;6.80;99.90
20246;DHT22;10281;54.406;18.556;2023-01-10T11:26:26;6.90;99.90
20246;DHT22;10281;54.406;18.556;2023-01-10T11:29:04;6.90;99.90
20246;DHT22;10281;54.406;18.556;2023-01-10T11:31:31;7.00;99.90
20246;DHT22;10281;54.406;18.556;2023-01-10T11:34:00;7.10;99.90
20246;DHT22;10281;54.406;18.556;2023-01-10T11:36:50;7.10;99.90
20246;DHT22;10281;54.406;18.556;2023-01-10T11:39:02;7.20;99.90
20246;DHT22;10281;54.406;18.556;2023-01-10T11:41:29;7.20;99.90
20246;DHT22;10281;54.406;18.556;2023-01-10T11:46:39;7.20;99.90
20246;DHT22;10281;54.406;18.556;2023-01-10T11:49:11;7.20;99.90
20246;DHT22;10281;54.406;18.556;2023-01-10T11:51:50;7.20;99.90
20246;DHT22;10281;54.406;18.556;2023-01-10T11:54:20;7.20;99.90
20246;DHT22;10281;54.406;18.556;2023-01-10T11:56:56;7.20;99.90
20246;DHT22;10281;54.406;18.556;2023-01-10T11:59:24;7.20;99.90
20246;DHT22;10281;54.406;18.556;2023-01-10T12:02:17;7.20;99.90
20246;DHT22;10281;54.406;18.556;2023-01-10T12:04:43;7.20;99.90
20246;DHT22;10281;54.406;18.556;2023-01-10T12:07:12;7.20;99.90
20246;DHT22;10281;54.406;18.556;2023-01-10T12:09:41;7.30;99.90
20246;DHT22;10281;54.406;18.556;2023-01-10T12:12:20;7.30;99.90
20246;DHT22;10281;54.406;18.556;2023-01-10T12:14:48;7.30;99.90
20246;DHT22;10281;54.406;18.556;2023-01-10T12:17:20;7.30;99.90
20246;DHT22;10281;54.406;18.556;2023-01-10T12:19:47;7.40;99.90
20246;DHT22;10281;54.406;18.556;2023-01-10T12:22:14;7.40;99.90
20246;DHT22;10281;54.406;18.556;2023-01-10T12:24:43;7.40;99.90
20246;DHT22;10281;54.406;18.556;2023-01-10T12:27:12;7.40;99.90
20246;DHT22;10281;54.406;18.556;2023-01-10T12:29:44;7.40;99.90
20246;DHT22;10281;54.406;18.556;2023-01-10T12:32:20;7.50;99.90
20246;DHT22;10281;54.406;18.556;2023-01-10T12:34:54;7.50;99.90
20246;DHT22;10281;54.406;18.556;2023-01-10T12:37:27;7.50;99.90
20246;DHT22;10281;54.406;18.556;2023-01-10T12:39:59;7.60;99.90
20246;DHT22;10281;54.406;18.556;2023-01-10T12:45:25;7.40;99.90
20246;DHT22;10281;54.406;18.556;2023-01-10T12:48:00;7.40;99.90
20246;DHT22;10281;54.406;18.556;2023-01-10T12:50:30;7.30;99.90
20246;DHT22;10281;54.406;18.556;2023-01-10T12:53:05;7.40;99.90
20246;DHT22;10281;54.406;18.556;2023-01-10T12:55:37;7.40;99.90
20246;DHT22;10281;54.406;18.556;2023-01-10T12:58:12;7.40;99.90
20246;DHT22;10281;54.406;18.556;2023-01-10T13:00:41;7.40;99.90
20246;DHT22;10281;54.406;18.556;2023-01-10T13:03:12;7.30;99.90
20246;DHT22;10281;54.406;18.556;2023-01-10T13:05:40;7.30;99.90
20246;DHT22;10281;54.406;18.556;2023-01-10T13:08:12;7.30;99.90
20246;DHT22;10281;54.406;18.556;2023-01-10T13:10:42;7.30;99.90
20246;DHT22;10281;54.406;18.556;2023-01-10T13:13:32;7.20;99.90
20246;DHT22;10281;54.406;18.556;2023-01-10T13:16:42;7.20;99.90
20246;DHT22;10281;54.406;18.556;2023-01-10T13:19:01;7.20;99.90
20246;DHT22;10281;54.406;18.556;2023-01-10T13:21:31;7.10;99.90
20246;DHT22;10281;54.406;18.556;2023-01-10T13:24:02;7.10;99.90
20246;DHT22;10281;54.406;18.556;2023-01-10T13:26:54;7.10;99.90
20246;DHT22;10281;54.406;18.556;2023-01-10T13:29:24;7.00;99.90
20246;DHT22;10281;54.406;18.556;2023-01-10T13:31:52;7.00;99.90
20246;DHT22;10281;54.406;18.556;2023-01-10T13:34:25;7.00;99.90
20246;DHT22;10281;54.406;18.556;2023-01-10T13:36:56;7.00;99.90
20246;DHT22;10281;54.406;18.556;2023-01-10T13:39:31;7.00;99.90
20246;DHT22;10281;54.406;18.556;2023-01-10T13:47:59;7.10;99.90
20246;DHT22;10281;54.406;18.556;2023-01-10T13:50:48;7.00;99.90
20246;DHT22;10281;54.406;18.556;2023-01-10T13:53:41;7.00;99.90
20246;DHT22;10281;54.406;18.556;2023-01-10T13:58:42;7.00;99.90
20246;DHT22;10281;54.406;18.556;2023-01-10T14:01:22;7.00;99.90
20246;DHT22;10281;54.406;18.556;2023-01-10T14:03:55;7.00;99.90
20246;DHT22;10281;54.406;18.556;2023-01-10T14:06:35;7.00;99.90
20246;DHT22;10281;54.406;18.556;2023-01-10T14:09:38;6.90;99.90
20246;DHT22;10281;54.406;18.556;2023-01-10T14:11:53;6.90;99.90
20246;DHT22;10281;54.406;18.556;2023-01-10T14:14:24;6.90;99.90
20246;DHT22;10281;54.406;18.556;2023-01-10T14:16:57;6.80;99.90
20246;DHT22;10281;54.406;18.556;2023-01-10T14:19:29;6.80;99.90
20246;DHT22;10281;54.406;18.556;2023-01-10T14:21:58;6.70;99.90
20246;DHT22;10281;54.406;18.556;2023-01-10T14:24:31;6.70;99.90
20246;DHT22;10281;54.406;18.556;2023-01-10T14:26:59;6.60;99.90
20246;DHT22;10281;54.406;18.556;2023-01-10T14:29:31;6.60;99.90
20246;DHT22;10281;54.406;18.556;2023-01-10T14:31:59;6.50;99.90
20246;DHT22;10281;54.406;18.556;2023-01-10T14:34:29;6.50;99.90
20246;DHT22;10281;54.406;18.556;2023-01-10T14:37:01;6.50;99.90
20246;DHT22;10281;54.406;18.556;2023-01-10T14:39:29;6.40;99.90
20246;DHT22;10281;54.406;18.556;2023-01-10T14:42:01;6.40;99.90
20246;DHT22;10281;54.406;18.556;2023-01-10T14:44:34;6.40;99.90
20246;DHT22;10281;54.406;18.556;2023-01-10T14:47:00;6.40;99.90
20246;DHT22;10281;54.406;18.556;2023-01-10T14:49:32;6.40;99.90
20246;DHT22;10281;54.406;18.556;2023-01-10T14:52:18;6.30;99.90
20246;DHT22;10281;54.406;18.556;2023-01-10T14:54:50;6.20;99.90
20246;DHT22;10281;54.406;18.556;2023-01-10T14:57:18;6.20;99.90
20246;DHT22;10281;54.406;18.556;2023-01-10T14:59:45;6.20;99.90
20246;DHT22;10281;54.406;18.556;2023-01-10T15:02:17;6.20;99.90
20246;DHT22;10281;54.406;18.556;2023-01-10T15:04:56;6.10;99.90
20246;DHT22;10281;54.406;18.556;2023-01-10T15:07:25;6.10;99.90
20246;DHT22;10281;54.406;18.556;2023-01-10T15:09:54;6.10;99.90
20246;DHT22;10281;54.406;18.556;2023-01-10T15:12:24;6.00;99.90
20246;DHT22;10281;54.406;18.556;2023-01-10T15:14:54;6.00;99.90
20246;DHT22;10281;54.406;18.556;2023-01-10T15:17:22;6.00;99.90
20246;DHT22;10281;54.406;18.556;2023-01-10T15:19:51;6.00;99.90
20246;DHT22;10281;54.406;18.556;2023-01-10T15:22:26;6.00;99.90
20246;DHT22;10281;54.406;18.556;2023-01-10T15:24:58;5.90;99.90
20246;DHT22;10281;54.406;18.556;2023-01-10T15:27:26;5.90;99.90
20246;DHT22;10281;54.406;18.556;2023-01-10T15:29:52;5.90;99.90
20246;DHT22;10281;54.406;18.556;2023-01-10T15:32:26;5.90;99.90
20246;DHT22;10281;54.406;18.556;2023-01-10T15:34:54;5.90;99.90
20246;DHT22;10281;54.406;18.556;2023-01-10T15:37:24;5.90;99.90
20246;DHT22;10281;54.406;18.556;2023-01-10T15:39:53;5.90;99.90
20246;DHT22;10281;54.406;18.556;2023-01-10T15:42:21;5.90;99.90
20246;DHT22;10281;54.406;18.556;2023-01-10T15:44:50;5.90;99.90
20246;DHT22;10281;54.406;18.556;2023-01-10T15:47:36;5.90;99.90
20246;DHT22;10281;54.406;18.556;2023-01-10T15:52:49;5.90;99.90
20246;DHT22;10281;54.406;18.556;2023-01-10T15:55:38;5.90;99.90
20246;DHT22;10281;54.406;18.556;2023-01-10T16:00:47;6.00;99.90
20246;DHT22;10281;54.406;18.556;2023-01-10T16:03:25;6.00;99.90
20246;DHT22;10281;54.406;18.556;2023-01-10T16:05:55;6.00;99.90
20246;DHT22;10281;54.406;18.556;2023-01-10T16:08:27;6.10;99.90
20246;DHT22;10281;54.406;18.556;2023-01-10T16:10:57;6.10;99.90
20246;DHT22;10281;54.406;18.556;2023-01-10T16:13:24;6.10;99.90
20246;DHT22;10281;54.406;18.556;2023-01-10T16:15:54;6.10;99.90
20246;DHT22;10281;54.406;18.556;2023-01-10T16:18:22;6.10;99.90
20246;DHT22;10281;54.406;18.556;2023-01-10T16:20:50;6.20;99.90
20246;DHT22;10281;54.406;18.556;2023-01-10T16:23:20;6.20;99.90
20246;DHT22;10281;54.406;18.556;2023-01-10T16:25:51;6.20;99.90
20246;DHT22;10281;54.406;18.556;2023-01-10T16:28:20;6.30;99.90